createdAt,value
2022-08-26T00:01:34.877Z,23.65
2022-08-26T00:05:36.706Z,23.41
2022-08-26T00:09:40.192Z,23.51
2022-08-26T00:13:42.903Z,23.72
2022-08-26T00:17:50.521Z,23.66
2022-08-26T00:21:52.140Z,23.18
2022-08-26T00:25:54.592Z,23.09
2022-08-26T00:29:58.306Z,23.13
2022-08-26T00:33:59.783Z,23.55
2022-08-26T00:38:02.197Z,23.19
2022-08-26T00:42:04.572Z,23.51
2022-08-26T00:46:14.763Z,23.47
2022-08-26T00:50:21.735Z,22.84
2022-08-26T00:54:27.311Z,23.26
2022-08-26T00:58:32.189Z,23.05
2022-08-26T01:02:33.906Z,23.09
2022-08-26T01:06:35.491Z,23.02
2022-08-26T01:10:37.208Z,23.51
2022-08-26T01:14:40.919Z,23.44
2022-08-26T01:18:48.433Z,23.94
2022-08-26T01:23:04.777Z,23.84
2022-08-26T01:27:12.279Z,23.76
2022-08-26T01:31:18.663Z,24.17
2022-08-26T01:35:21.389Z,24.43
2022-08-26T01:39:23.621Z,24.55
2022-08-26T01:43:28.302Z,24.52
2022-08-26T01:47:32.112Z,24.65
2022-08-26T01:51:37.253Z,24.66
2022-08-26T01:55:42.906Z,24.67
2022-08-26T01:59:44.665Z,24.52
2022-08-26T02:04:01.324Z,24.43
2022-08-26T02:08:04.188Z,24.42
2022-08-26T02:12:06.344Z,24.48
2022-08-26T02:16:14.840Z,24.64
2022-08-26T02:20:19.762Z,24.40
2022-08-26T02:24:27.947Z,24.14
2022-08-26T02:28:35.673Z,24.39
2022-08-26T02:32:37.625Z,24.45
2022-08-26T02:36:42.276Z,24.62
2022-08-26T02:40:44.011Z,24.74
2022-08-26T02:44:45.462Z,24.66
2022-08-26T02:48:46.991Z,24.15
2022-08-26T02:52:48.862Z,24.67
2022-08-26T02:56:51.264Z,24.60
2022-08-26T03:00:53.799Z,24.27
2022-08-26T03:04:58.050Z,23.78
2022-08-26T03:09:05.317Z,23.90
2022-08-26T03:13:07.018Z,24.33
2022-08-26T03:17:08.678Z,24.49
2022-08-26T03:21:15.399Z,24.87
2022-08-26T03:25:17.524Z,25.05
2022-08-26T03:29:37.858Z,24.52
2022-08-26T03:33:40.707Z,23.95
2022-08-26T03:37:42.489Z,24.55
2022-08-26T03:41:45.093Z,24.90
2022-08-26T03:45:46.632Z,24.78
2022-08-26T03:49:48.506Z,24.84
2022-08-26T03:53:53.438Z,24.78
2022-08-26T03:57:54.979Z,24.55
2022-08-26T04:01:58.088Z,24.54
2022-08-26T04:05:59.799Z,24.62
2022-08-26T04:10:02.073Z,25.00
2022-08-26T04:14:07.073Z,24.97
2022-08-26T04:18:08.889Z,24.83
2022-08-26T04:22:10.645Z,24.85
2022-08-26T04:26:12.188Z,25.11
2022-08-26T04:30:14.436Z,25.12
2022-08-26T04:34:17.272Z,24.68
2022-08-26T04:38:19.899Z,24.54
2022-08-26T04:42:25.892Z,24.94
2022-08-26T04:46:27.881Z,24.73
2022-08-26T04:50:29.605Z,24.25
2022-08-26T04:54:31.312Z,24.09
2022-08-26T04:58:32.874Z,24.87
2022-08-26T05:02:34.381Z,23.96
2022-08-26T05:06:37.209Z,24.46
2022-08-26T05:10:41.010Z,24.52
2022-08-26T05:14:42.500Z,24.46
2022-08-26T05:18:45.636Z,24.56
2022-08-26T05:22:47.872Z,24.68
2022-08-26T05:26:49.844Z,24.45
2022-08-26T05:30:52.249Z,24.63
2022-08-26T05:34:55.387Z,24.58
2022-08-26T05:38:57.676Z,24.41
2022-08-26T05:43:00.164Z,24.82
2022-08-26T05:47:04.222Z,24.84
2022-08-26T05:51:08.482Z,24.74
2022-08-26T05:55:10.311Z,24.10
2022-08-26T05:59:15.466Z,25.08
2022-08-26T06:03:17.297Z,24.32
2022-08-26T06:07:38.888Z,24.71
2022-08-26T06:11:41.583Z,24.54
2022-08-26T06:15:46.574Z,24.28
2022-08-26T06:19:48.118Z,24.39
2022-08-26T06:24:12.128Z,24.35
2022-08-26T06:28:14.851Z,24.66
2022-08-26T06:32:17.479Z,24.60
2022-08-26T06:36:21.825Z,24.49
2022-08-26T06:40:25.046Z,25.42
2022-08-26T06:44:27.124Z,25.47
2022-08-26T06:48:28.798Z,25.59
2022-08-26T06:52:30.299Z,25.18
2022-08-26T06:56:37.927Z,24.94
2022-08-26T07:00:40.411Z,24.68
2022-08-26T07:04:44.388Z,24.83
2022-08-26T07:08:51.706Z,24.77
2022-08-26T07:12:53.961Z,26.23
2022-08-26T07:16:56.389Z,25.92
2022-08-26T07:21:00.462Z,25.25
2022-08-26T07:25:02.014Z,24.78
2022-08-26T07:29:05.451Z,24.91
2022-08-26T07:33:07.483Z,24.51
2022-08-26T07:37:10.151Z,24.67
2022-08-26T07:41:13.251Z,24.63
2022-08-26T07:45:14.864Z,24.95
2022-08-26T07:49:17.745Z,25.14
2022-08-26T07:53:20.486Z,25.09
2022-08-26T07:57:22.053Z,25.26
2022-08-26T08:01:26.816Z,26.40
2022-08-26T08:05:33.409Z,26.27
2022-08-26T08:09:36.446Z,26.38
2022-08-26T08:13:42.300Z,25.73
2022-08-26T08:17:44.176Z,25.49
2022-08-26T08:21:46.869Z,26.18
2022-08-26T08:25:49.227Z,25.87
2022-08-26T08:29:51.023Z,26.36
2022-08-26T08:33:53.984Z,26.89
2022-08-26T08:37:56.491Z,26.40
2022-08-26T08:42:05.893Z,27.37
2022-08-26T08:46:16.818Z,26.94
2022-08-26T08:50:29.885Z,26.37
2022-08-26T08:54:32.496Z,27.39
2022-08-26T08:58:47.608Z,26.42
2022-08-26T09:02:58.611Z,26.59
2022-08-26T09:07:02.964Z,26.69
2022-08-26T09:11:04.519Z,27.43
2022-08-26T09:15:18.663Z,27.81
2022-08-26T09:19:30.167Z,28.18
2022-08-26T09:23:34.142Z,26.97
2022-08-26T09:27:42.775Z,28.45
2022-08-26T09:31:45.269Z,28.30
2022-08-26T09:35:48.783Z,27.59
2022-08-26T09:39:50.514Z,28.08
2022-08-26T09:44:15.566Z,28.50
2022-08-26T09:48:31.174Z,28.52
2022-08-26T09:52:33.448Z,29.04
2022-08-26T09:56:37.801Z,29.65
2022-08-26T10:00:55.563Z,30.43
2022-08-26T10:04:58.844Z,30.78
2022-08-26T10:09:13.739Z,29.00
2022-08-26T10:13:34.055Z,29.92
2022-08-26T10:18:15.071Z,29.22
2022-08-26T10:22:40.197Z,29.34
2022-08-26T10:27:03.614Z,29.15
2022-08-26T10:31:28.440Z,30.15
2022-08-26T10:35:32.440Z,30.10
2022-08-26T10:39:45.030Z,29.63
2022-08-26T10:43:58.643Z,30.89
2022-08-26T10:48:06.297Z,30.94
2022-08-26T10:52:17.749Z,31.01
2022-08-26T10:56:46.455Z,30.83
2022-08-26T11:01:14.280Z,31.37
2022-08-26T11:05:23.555Z,31.64
2022-08-26T11:09:58.476Z,31.12
2022-08-26T11:14:03.975Z,30.50
2022-08-26T11:18:08.938Z,31.04
2022-08-26T11:22:25.819Z,30.64
2022-08-26T11:26:55.321Z,30.79
2022-08-26T11:30:58.436Z,30.73
2022-08-26T11:35:04.576Z,30.52
2022-08-26T11:39:19.408Z,30.58
2022-08-26T11:43:25.868Z,29.95
2022-08-26T11:47:31.966Z,29.15
2022-08-26T11:51:40.434Z,29.11
2022-08-26T11:55:44.887Z,29.46
2022-08-26T11:59:48.958Z,28.97
2022-08-26T12:03:52.360Z,29.18
2022-08-26T12:07:54.840Z,28.90
2022-08-26T12:12:34.568Z,29.05
2022-08-26T12:16:39.179Z,29.35
2022-08-26T12:20:55.866Z,28.69
2022-08-26T12:25:05.051Z,29.42
2022-08-26T12:29:19.866Z,29.55
2022-08-26T12:33:23.296Z,29.48
2022-08-26T12:37:27.119Z,29.78
2022-08-26T12:41:47.385Z,29.74
2022-08-26T12:45:58.399Z,30.26
2022-08-26T12:50:03.139Z,30.51
2022-08-26T12:54:06.752Z,30.62
2022-08-26T12:58:31.595Z,30.23
2022-08-26T13:02:39.687Z,28.86
2022-08-26T13:06:41.245Z,28.96
2022-08-26T13:10:47.241Z,26.91
2022-08-26T13:14:49.078Z,27.35
2022-08-26T13:18:54.140Z,26.98
2022-08-26T13:22:59.085Z,25.72
2022-08-26T13:27:02.664Z,25.64
2022-08-26T13:31:04.896Z,26.11
2022-08-26T13:35:07.922Z,26.53
2022-08-26T13:39:09.400Z,26.62
2022-08-26T13:43:11.472Z,26.10
2022-08-26T13:47:13.279Z,27.24
2022-08-26T13:51:16.394Z,27.28
2022-08-26T13:55:17.928Z,27.54
2022-08-26T13:59:19.373Z,27.36
2022-08-26T14:03:20.910Z,27.52
2022-08-26T14:07:22.914Z,27.07
2022-08-26T14:11:24.936Z,27.00
2022-08-26T14:15:26.976Z,27.00
2022-08-26T14:19:31.353Z,27.46
2022-08-26T14:23:33.550Z,27.42
2022-08-26T14:27:34.959Z,27.49
2022-08-26T14:31:38.593Z,27.28
2022-08-26T14:35:40.578Z,27.23
2022-08-26T14:39:50.572Z,26.88
2022-08-26T14:44:13.980Z,26.99
2022-08-26T14:48:15.498Z,26.74
2022-08-26T14:52:17.697Z,26.98
2022-08-26T14:56:19.478Z,27.06
2022-08-26T15:00:21.156Z,26.91
2022-08-26T15:04:23.563Z,27.02
2022-08-26T15:08:25.524Z,27.03
2022-08-26T15:12:27.735Z,26.31
2022-08-26T15:16:29.602Z,25.27
2022-08-26T15:24:37.764Z,26.62
2022-08-26T15:28:40.339Z,25.26
2022-08-26T15:32:41.964Z,25.57
2022-08-26T15:36:45.777Z,25.64
2022-08-26T15:40:47.291Z,26.07
2022-08-26T15:44:49.814Z,26.08
2022-08-26T15:48:51.841Z,25.59
2022-08-26T15:52:53.304Z,25.54
2022-08-26T15:56:55.700Z,25.05
2022-08-26T16:00:57.391Z,24.68
2022-08-26T16:04:59.045Z,24.99
2022-08-26T16:09:01.398Z,25.48
2022-08-26T16:13:04.378Z,26.19
2022-08-26T16:17:05.846Z,26.29
2022-08-26T16:21:13.537Z,26.25
2022-08-26T16:25:15.602Z,26.25
2022-08-26T16:29:17.588Z,26.40
2022-08-26T16:33:21.523Z,26.37
2022-08-26T16:37:30.893Z,26.07
2022-08-26T16:41:33.247Z,26.26
2022-08-26T16:45:38.012Z,26.41
2022-08-26T16:49:43.754Z,26.24
2022-08-26T16:53:45.941Z,26.06
2022-08-26T16:57:48.523Z,26.09
2022-08-26T17:01:50.342Z,26.22
2022-08-26T17:05:51.868Z,26.26
2022-08-26T17:09:53.348Z,26.11
2022-08-26T17:13:54.849Z,26.04
2022-08-26T17:17:57.014Z,25.03
2022-08-26T17:21:58.479Z,24.95
2022-08-26T17:26:00.032Z,24.89
2022-08-26T17:30:01.767Z,25.57
2022-08-26T17:34:04.154Z,26.12
2022-08-26T17:38:05.739Z,25.71
2022-08-26T17:42:07.247Z,25.26
2022-08-26T17:46:10.420Z,25.25
2022-08-26T17:50:15.381Z,25.03
2022-08-26T17:54:16.932Z,24.51
2022-08-26T17:58:20.391Z,24.60
2022-08-26T18:02:24.372Z,25.29
2022-08-26T18:06:26.000Z,25.52
2022-08-26T18:10:27.743Z,25.71
2022-08-26T18:14:29.754Z,25.41
2022-08-26T18:18:32.592Z,25.31
2022-08-26T18:22:34.237Z,25.60
2022-08-26T18:26:37.876Z,25.78
2022-08-26T18:30:41.701Z,24.91
2022-08-26T18:34:44.068Z,25.00
2022-08-26T18:38:47.583Z,25.01
2022-08-26T18:42:54.043Z,25.24
2022-08-26T18:46:55.820Z,25.70
2022-08-26T18:50:59.998Z,25.86
2022-08-26T18:55:01.738Z,25.98
2022-08-26T18:59:04.643Z,25.04
2022-08-26T19:03:06.285Z,25.81
2022-08-26T19:07:20.138Z,25.86
2022-08-26T19:11:32.311Z,25.71
2022-08-26T19:15:40.499Z,25.64
2022-08-26T19:19:42.002Z,25.53
2022-08-26T19:23:43.587Z,25.80
2022-08-26T19:27:45.039Z,25.00
2022-08-26T19:31:47.916Z,25.07
2022-08-26T19:35:49.640Z,25.20
2022-08-26T19:39:51.332Z,25.68
2022-08-26T19:43:52.837Z,25.41
2022-08-26T19:47:55.118Z,24.42
2022-08-26T19:51:57.251Z,24.74
2022-08-26T19:55:58.874Z,24.91
2022-08-26T20:00:01.027Z,24.71
2022-08-26T20:04:02.816Z,24.49
2022-08-26T20:08:04.291Z,24.13
2022-08-26T20:12:06.887Z,24.45
2022-08-26T20:16:10.323Z,24.61
2022-08-26T20:20:33.714Z,24.01
2022-08-26T20:24:35.811Z,24.36
2022-08-26T20:28:37.451Z,24.67
2022-08-26T20:32:40.148Z,24.17
2022-08-26T20:36:42.863Z,24.49
2022-08-26T20:40:44.339Z,24.00
2022-08-26T20:44:55.051Z,24.83
2022-08-26T20:48:58.214Z,24.90
2022-08-26T20:53:00.354Z,25.04
2022-08-26T20:57:01.812Z,24.69
2022-08-26T21:01:07.753Z,24.39
2022-08-26T21:05:09.770Z,24.70
2022-08-26T21:09:13.006Z,23.90
2022-08-26T21:13:17.470Z,24.44
2022-08-26T21:17:18.958Z,23.81
2022-08-26T21:21:24.970Z,24.07
2022-08-26T21:25:26.884Z,23.90
2022-08-26T21:29:28.463Z,23.97
2022-08-26T21:33:29.955Z,23.57
2022-08-26T21:37:31.531Z,23.61
2022-08-26T21:41:33.192Z,23.37
2022-08-26T21:45:39.944Z,23.69
2022-08-26T21:49:41.488Z,23.76
2022-08-26T21:53:43.400Z,23.77
2022-08-26T21:57:45.111Z,23.98
2022-08-26T22:01:47.334Z,24.08
2022-08-26T22:05:51.578Z,23.87
2022-08-26T22:09:53.018Z,23.85
2022-08-26T22:13:56.832Z,24.67
2022-08-26T22:17:58.831Z,23.99
2022-08-26T22:22:02.240Z,23.93
2022-08-26T22:26:06.547Z,24.06
2022-08-26T22:30:08.270Z,23.71
2022-08-26T22:34:17.061Z,23.97
2022-08-26T22:38:19.442Z,24.06
2022-08-26T22:42:20.874Z,24.29
2022-08-26T22:46:25.304Z,23.71
2022-08-26T22:50:26.924Z,23.49
2022-08-26T22:54:28.468Z,23.16
2022-08-26T22:58:30.431Z,23.07
2022-08-26T23:02:32.597Z,23.39
2022-08-26T23:06:36.259Z,23.44
2022-08-26T23:10:39.907Z,23.27
2022-08-26T23:14:43.758Z,24.04
2022-08-26T23:18:45.237Z,23.76
2022-08-26T23:22:46.714Z,23.84
2022-08-26T23:26:48.637Z,24.33
2022-08-26T23:30:50.120Z,24.21
2022-08-26T23:34:58.803Z,23.51
2022-08-26T23:39:00.635Z,23.59
2022-08-26T23:43:05.418Z,24.22
2022-08-26T23:47:08.051Z,23.91
2022-08-26T23:51:29.098Z,24.87
2022-08-26T23:55:33.978Z,24.99
2022-08-26T23:59:37.873Z,25.00
